Jetmore, Kansas
Current Conditions -  °F | °C
As of 10:52 PM on Friday 24 Oct 2014 (Local Time) from KDDC Reporting Station
Clear Clear  
Wind Chill: 62°   Ceiling: Unl
Heat Index: 62°   Visibility: 10mi
Dew Point: 53°   Wind: 7mph
Humidity: 72%   Direction: 190°S
Pressure: 30.08"   Gusts: NA
Location:  38.08°N, 99.89°W
Report Text: KDDC 250352Z AUTO 19006KT 10SM CLR 17/12 A3008 RMK AO2 SLP166 T01670117
Loading
Personal Weather Stations






























Interactive Weather Map
Tropical Storm Tracking
New forecast layout! Learn more

10-Day Weather Forecast

Advertisements
Track Severe Weather on mobile